createdAt,value
2023-12-11T00:00:08.739Z,44.97
2023-12-11T00:00:41.096Z,43.57
2023-12-11T00:01:13.616Z,41.27
2023-12-11T00:01:46.399Z,42.33
2023-12-11T00:02:18.924Z,42.47
2023-12-11T00:02:51.077Z,41.60
2023-12-11T00:03:23.233Z,42.50
2023-12-11T00:03:57.131Z,44.30
2023-12-11T00:04:29.207Z,42.93
2023-12-11T00:05:01.867Z,43.17
2023-12-11T00:05:33.947Z,42.20
2023-12-11T00:06:06.739Z,41.87
2023-12-11T00:06:38.801Z,42.30
2023-12-11T00:07:10.980Z,42.47
2023-12-11T00:07:43.204Z,44.40
2023-12-11T00:08:15.276Z,42.73
2023-12-11T00:08:47.463Z,44.03
2023-12-11T00:09:19.476Z,44.37
2023-12-11T00:09:51.588Z,43.93
2023-12-11T00:10:23.620Z,43.33
2023-12-11T00:10:55.608Z,44.87
2023-12-11T00:11:27.665Z,44.40
2023-12-11T00:11:59.709Z,44.63
2023-12-11T00:12:31.788Z,44.67
2023-12-11T00:13:04.023Z,44.73
2023-12-11T00:13:36.063Z,44.97
2023-12-11T00:14:08.206Z,47.63
2023-12-11T00:14:40.346Z,48.93
2023-12-11T00:15:12.636Z,46.70
2023-12-11T00:15:44.717Z,44.37
2023-12-11T00:16:17.595Z,46.47
2023-12-11T00:16:49.660Z,45.73
2023-12-11T00:17:24.264Z,45.37
2023-12-11T00:17:56.505Z,47.13
2023-12-11T00:18:28.824Z,47.27
2023-12-11T00:19:02.390Z,46.30
2023-12-11T00:19:34.739Z,46.63
2023-12-11T00:20:08.065Z,43.03
2023-12-11T00:20:40.282Z,44.50
2023-12-11T00:21:12.672Z,46.50
2023-12-11T00:21:44.720Z,48.70
2023-12-11T00:22:16.750Z,47.07
2023-12-11T00:22:49.017Z,46.40
2023-12-11T00:23:21.210Z,47.10
2023-12-11T00:23:54.080Z,45.60
2023-12-11T00:24:26.138Z,47.77
2023-12-11T00:24:58.250Z,45.53
2023-12-11T00:25:30.567Z,44.70
2023-12-11T00:26:02.673Z,46.57
2023-12-11T00:26:34.719Z,49.40
2023-12-11T00:27:06.721Z,49.27
2023-12-11T00:27:38.726Z,48.73
2023-12-11T00:28:10.880Z,47.33
2023-12-11T00:28:42.935Z,44.60
2023-12-11T00:29:15.254Z,45.53
2023-12-11T00:29:47.361Z,48.33
2023-12-11T00:30:19.401Z,48.80
2023-12-11T00:30:52.261Z,47.83
2023-12-11T00:31:24.470Z,48.90
2023-12-11T00:31:56.488Z,49.30
2023-12-11T00:32:28.567Z,49.27
2023-12-11T00:33:00.603Z,47.43
2023-12-11T00:33:32.750Z,47.43
2023-12-11T00:34:06.351Z,45.73
2023-12-11T00:34:38.605Z,46.43
2023-12-11T00:35:10.725Z,46.23
2023-12-11T00:35:42.877Z,45.30
2023-12-11T00:36:14.957Z,45.13
2023-12-11T00:36:47.026Z,46.07
2023-12-11T00:37:19.056Z,45.57
2023-12-11T00:37:51.124Z,46.30
2023-12-11T00:38:23.192Z,46.73
2023-12-11T00:38:55.260Z,45.00
2023-12-11T00:39:28.004Z,44.83
2023-12-11T00:40:00.083Z,48.57
2023-12-11T00:40:32.407Z,48.93
2023-12-11T00:41:04.846Z,49.97
2023-12-11T00:41:36.899Z,49.07
2023-12-11T00:42:09.127Z,49.63
2023-12-11T00:42:41.392Z,47.53
2023-12-11T00:43:13.669Z,47.33
2023-12-11T00:43:46.815Z,47.43
2023-12-11T00:44:19.247Z,46.57
2023-12-11T00:44:51.359Z,46.27
2023-12-11T00:45:23.385Z,44.83
2023-12-11T00:45:55.658Z,46.93
2023-12-11T00:46:27.693Z,47.37
2023-12-11T00:46:59.756Z,47.97
2023-12-11T00:47:32.270Z,46.20
2023-12-11T00:48:05.123Z,47.83
2023-12-11T00:48:37.265Z,50.03
2023-12-11T00:49:11.048Z,49.10
2023-12-11T00:49:43.165Z,49.87
2023-12-11T00:50:15.287Z,48.10
2023-12-11T00:50:47.484Z,50.20
2023-12-11T00:51:20.754Z,48.63
2023-12-11T00:51:52.773Z,48.73
2023-12-11T00:52:24.904Z,47.57
2023-12-11T00:52:56.874Z,48.07
2023-12-11T00:53:28.894Z,46.63
2023-12-11T00:54:00.928Z,48.33
2023-12-11T00:54:33.074Z,50.03
2023-12-11T00:55:06.077Z,48.43
2023-12-11T00:55:38.175Z,49.37
2023-12-11T00:56:10.494Z,48.70
2023-12-11T00:56:42.614Z,49.10
2023-12-11T00:57:14.842Z,48.93
2023-12-11T00:57:49.989Z,48.70
2023-12-11T00:58:22.161Z,49.47
2023-12-11T00:58:54.207Z,47.20
2023-12-11T00:59:26.412Z,46.03
2023-12-11T00:59:58.619Z,46.57
2023-12-11T01:00:30.764Z,47.73
2023-12-11T01:01:02.913Z,49.03
2023-12-11T01:01:35.025Z,48.90
2023-12-11T01:02:07.148Z,49.50
2023-12-11T01:02:39.143Z,48.47
2023-12-11T01:03:11.245Z,50.07
2023-12-11T01:03:43.514Z,49.07
2023-12-11T01:04:17.248Z,49.03
2023-12-11T01:04:49.501Z,49.27
2023-12-11T01:05:21.577Z,49.27
2023-12-11T01:05:53.715Z,48.90
2023-12-11T01:06:25.780Z,48.30
2023-12-11T01:06:57.902Z,48.60
2023-12-11T01:07:30.263Z,48.20
2023-12-11T01:08:02.524Z,48.73
2023-12-11T01:08:34.677Z,49.60
2023-12-11T01:09:06.857Z,46.87
2023-12-11T01:09:38.968Z,48.03
2023-12-11T01:10:11.160Z,47.33
2023-12-11T01:10:43.386Z,45.30
2023-12-11T01:11:15.447Z,45.43
2023-12-11T01:11:47.452Z,47.00
2023-12-11T01:12:19.640Z,47.60
2023-12-11T01:12:51.797Z,47.43
2023-12-11T01:13:23.903Z,46.47
2023-12-11T01:13:55.976Z,47.10
2023-12-11T01:14:28.061Z,46.40
2023-12-11T01:15:00.113Z,46.43
2023-12-11T01:15:32.258Z,45.00
2023-12-11T01:16:05.138Z,44.40
2023-12-11T01:16:37.204Z,44.73
2023-12-11T01:17:36.695Z,44.40
2023-12-11T01:18:01.393Z,44.83
2023-12-11T01:18:33.655Z,46.03
2023-12-11T01:19:06.217Z,45.97
2023-12-11T01:19:40.240Z,45.00
2023-12-11T01:20:12.842Z,43.93
2023-12-11T01:20:44.932Z,42.83
2023-12-11T01:21:17.139Z,43.40
2023-12-11T01:21:49.198Z,41.47
2023-12-11T01:22:21.204Z,39.90
2023-12-11T01:22:53.252Z,41.23
2023-12-11T01:23:25.296Z,39.43
2023-12-11T01:23:58.261Z,37.50
2023-12-11T01:24:30.469Z,38.87
2023-12-11T01:25:02.572Z,39.10
2023-12-11T01:25:35.210Z,38.43
2023-12-11T01:26:07.490Z,38.27
2023-12-11T01:26:39.850Z,36.73
2023-12-11T01:27:11.942Z,37.33
2023-12-11T01:27:44.031Z,36.07
2023-12-11T01:28:16.274Z,36.07
2023-12-11T01:28:48.332Z,37.07
2023-12-11T01:29:20.378Z,35.03
2023-12-11T01:29:52.452Z,37.80
2023-12-11T01:30:24.705Z,38.40
2023-12-11T01:30:56.828Z,39.57
2023-12-11T01:31:28.874Z,37.57
2023-12-11T01:32:01.024Z,35.70
2023-12-11T01:32:33.105Z,36.57
2023-12-11T01:33:05.379Z,36.33
2023-12-11T01:33:37.527Z,35.50
2023-12-11T01:34:09.746Z,37.50
2023-12-11T01:34:43.486Z,38.20
2023-12-11T01:35:15.617Z,35.90
2023-12-11T01:35:47.644Z,34.17
2023-12-11T01:36:19.634Z,33.07
2023-12-11T01:36:51.702Z,28.57
2023-12-11T01:37:23.797Z,26.90
2023-12-11T01:37:55.866Z,26.67
2023-12-11T01:38:27.986Z,26.87
2023-12-11T01:39:00.023Z,25.87
2023-12-11T01:39:32.030Z,24.67
2023-12-11T01:40:05.018Z,26.43
2023-12-11T01:40:37.105Z,26.70
2023-12-11T01:41:09.094Z,26.03
2023-12-11T01:41:43.992Z,24.40
2023-12-11T01:42:16.089Z,25.97
2023-12-11T01:42:48.372Z,25.13
2023-12-11T01:43:20.916Z,25.00
2023-12-11T01:43:53.549Z,24.97
2023-12-11T01:44:25.784Z,24.70
2023-12-11T01:44:57.899Z,24.83
2023-12-11T01:45:30.142Z,25.13
2023-12-11T01:46:06.380Z,23.63
2023-12-11T01:46:39.503Z,24.33
2023-12-11T01:47:11.930Z,25.73
2023-12-11T01:47:44.260Z,24.13
2023-12-11T01:48:16.946Z,24.50
2023-12-11T01:48:50.075Z,24.27
2023-12-11T01:49:22.357Z,24.63
2023-12-11T01:49:55.863Z,24.93
2023-12-11T01:50:28.002Z,25.90
2023-12-11T01:51:00.502Z,26.43
2023-12-11T01:51:32.894Z,25.30
2023-12-11T01:52:07.106Z,25.07
2023-12-11T01:52:39.702Z,27.07
2023-12-11T01:53:11.972Z,27.27
2023-12-11T01:53:45.688Z,27.70
2023-12-11T01:54:17.865Z,27.17
2023-12-11T01:54:49.983Z,27.37
2023-12-11T01:55:22.046Z,26.73
2023-12-11T01:55:54.732Z,27.13
2023-12-11T01:56:27.193Z,26.87
2023-12-11T01:56:59.422Z,27.53
2023-12-11T01:57:32.152Z,27.90
2023-12-11T01:58:05.471Z,28.87
2023-12-11T01:58:38.254Z,28.30
2023-12-11T01:59:11.195Z,27.97
2023-12-11T01:59:47.534Z,28.77
2023-12-11T02:00:21.083Z,30.57
2023-12-11T02:00:53.396Z,29.83
2023-12-11T02:01:27.647Z,29.63
2023-12-11T02:02:00.485Z,28.37
2023-12-11T02:02:32.542Z,28.50
2023-12-11T02:03:05.283Z,29.00
2023-12-11T02:03:38.640Z,28.13
2023-12-11T02:04:10.888Z,28.10
2023-12-11T02:04:43.219Z,28.53
2023-12-11T02:05:16.751Z,29.07
2023-12-11T02:05:49.735Z,27.93
2023-12-11T02:06:22.896Z,29.57
2023-12-11T02:06:55.029Z,28.33
2023-12-11T02:07:27.296Z,28.63
2023-12-11T02:07:59.698Z,29.50
2023-12-11T02:08:31.892Z,29.77
2023-12-11T02:09:04.022Z,29.00
2023-12-11T02:09:36.178Z,28.23
2023-12-11T02:10:09.229Z,28.20
2023-12-11T02:10:41.412Z,29.23
2023-12-11T02:11:13.628Z,26.67
2023-12-11T02:11:47.283Z,26.97
2023-12-11T02:12:19.588Z,28.00
2023-12-11T02:12:51.818Z,28.70
2023-12-11T02:13:23.932Z,30.60
2023-12-11T02:13:56.135Z,30.27
2023-12-11T02:14:28.346Z,28.67
2023-12-11T02:15:00.342Z,28.13
2023-12-11T02:19:10.104Z,29.53
2023-12-11T02:19:42.348Z,30.10
2023-12-11T02:20:15.878Z,31.17
2023-12-11T02:20:48.150Z,32.13
2023-12-11T02:21:20.262Z,32.47
2023-12-11T02:21:53.445Z,30.70
2023-12-11T02:22:25.924Z,31.67
2023-12-11T02:23:01.477Z,31.07
2023-12-11T02:23:48.189Z,30.10
2023-12-11T02:24:23.815Z,30.40
2023-12-11T02:25:00.991Z,31.40
2023-12-11T02:25:36.566Z,30.80
2023-12-11T02:26:12.192Z,30.43
2023-12-11T02:26:44.723Z,30.23
2023-12-11T02:27:16.947Z,31.70
2023-12-11T02:27:48.998Z,31.53
2023-12-11T02:28:21.114Z,31.67
2023-12-11T02:28:53.132Z,31.17
2023-12-11T02:29:25.183Z,29.93
2023-12-11T02:29:57.242Z,30.20
2023-12-11T02:30:32.625Z,31.20
2023-12-11T02:31:05.625Z,29.57
2023-12-11T02:31:38.682Z,31.33
2023-12-11T02:32:10.819Z,30.40
2023-12-11T02:32:42.872Z,31.80
2023-12-11T02:33:15.158Z,30.37
2023-12-11T02:33:47.236Z,30.30
2023-12-11T02:34:19.348Z,30.03
2023-12-11T02:34:51.463Z,30.50
2023-12-11T02:35:23.488Z,31.20
2023-12-11T02:35:55.823Z,31.07
2023-12-11T02:36:28.055Z,29.77
2023-12-11T02:37:00.202Z,30.10
2023-12-11T02:37:32.532Z,31.23
2023-12-11T02:38:04.712Z,33.57
2023-12-11T02:38:36.832Z,31.83
2023-12-11T02:39:08.942Z,31.80
2023-12-11T02:39:41.427Z,31.23
2023-12-11T02:40:13.707Z,29.50
2023-12-11T02:40:45.726Z,30.93
2023-12-11T02:41:19.184Z,30.57
2023-12-11T02:41:51.285Z,30.93
2023-12-11T02:42:23.284Z,30.77
2023-12-11T02:42:55.537Z,31.13
2023-12-11T02:43:27.644Z,31.33
2023-12-11T02:44:00.433Z,30.30
2023-12-11T02:44:32.572Z,29.77
2023-12-11T02:45:05.617Z,29.33
2023-12-11T02:45:37.764Z,29.20
2023-12-11T02:46:12.852Z,31.43
2023-12-11T02:46:44.954Z,30.60
2023-12-11T02:47:16.956Z,31.50
2023-12-11T02:47:49.061Z,30.07
2023-12-11T02:48:21.504Z,30.60
2023-12-11T02:48:53.777Z,29.60
2023-12-11T02:49:26.153Z,29.47
2023-12-11T02:49:58.230Z,28.13
2023-12-11T02:50:30.313Z,27.33
2023-12-11T02:51:02.484Z,26.37
2023-12-11T02:51:34.985Z,28.50
2023-12-11T02:52:07.401Z,29.17
2023-12-11T02:52:39.420Z,28.93
2023-12-11T02:53:11.447Z,28.13
2023-12-11T02:53:43.966Z,29.57
2023-12-11T02:54:16.086Z,30.10
2023-12-11T02:54:48.282Z,29.23
2023-12-11T02:55:20.381Z,27.83
2023-12-11T02:55:52.401Z,27.40
2023-12-11T02:56:25.752Z,27.50
2023-12-11T02:56:57.801Z,27.80
2023-12-11T02:57:30.322Z,27.07
2023-12-11T02:58:04.053Z,27.80
2023-12-11T02:58:36.189Z,28.80
2023-12-11T02:59:08.240Z,28.90
2023-12-11T02:59:40.301Z,28.47
2023-12-11T03:00:12.441Z,28.40
2023-12-11T03:00:44.798Z,28.27
2023-12-11T03:01:17.154Z,28.07
2023-12-11T03:01:49.518Z,27.53
2023-12-11T03:02:21.658Z,27.47
2023-12-11T03:02:54.162Z,26.30
2023-12-11T03:03:26.325Z,27.47
2023-12-11T03:03:58.409Z,27.27
2023-12-11T03:04:30.536Z,27.23
2023-12-11T03:05:02.654Z,26.90
2023-12-11T03:05:34.885Z,26.70
2023-12-11T03:06:07.538Z,28.23
2023-12-11T03:06:39.623Z,28.23
2023-12-11T03:07:11.729Z,28.97
2023-12-11T03:07:43.914Z,28.00
2023-12-11T03:08:15.964Z,27.90
2023-12-11T03:08:48.023Z,27.83
2023-12-11T03:09:20.009Z,27.77
2023-12-11T03:09:53.848Z,26.97
2023-12-11T03:10:26.368Z,27.13
2023-12-11T03:10:59.281Z,28.60
2023-12-11T03:11:32.841Z,28.03
2023-12-11T03:12:05.359Z,27.87
2023-12-11T03:12:37.735Z,31.30
2023-12-11T03:13:10.001Z,30.00
2023-12-11T03:13:42.124Z,30.53
2023-12-11T03:14:14.221Z,30.77
2023-12-11T03:14:46.229Z,30.77
2023-12-11T03:15:18.288Z,30.63
2023-12-11T03:15:50.720Z,30.93
2023-12-11T03:16:22.859Z,30.73
2023-12-11T03:16:55.006Z,30.57
2023-12-11T03:17:27.295Z,31.67
2023-12-11T03:17:59.523Z,31.20
2023-12-11T03:18:31.813Z,28.93
2023-12-11T03:19:04.194Z,29.47
2023-12-11T03:19:36.445Z,30.57
2023-12-11T03:20:11.094Z,30.53
2023-12-11T03:20:43.089Z,29.83
2023-12-11T03:21:15.270Z,29.07
2023-12-11T03:21:47.318Z,29.87
2023-12-11T03:22:20.906Z,29.00
2023-12-11T03:22:54.860Z,30.47
2023-12-11T03:23:26.862Z,29.77
2023-12-11T03:23:58.873Z,30.27
2023-12-11T03:24:31.084Z,29.80
2023-12-11T03:25:03.341Z,29.00
2023-12-11T03:25:35.482Z,28.03
2023-12-11T03:26:07.458Z,29.03
2023-12-11T03:26:41.298Z,28.13
2023-12-11T03:27:13.352Z,29.70
2023-12-11T03:27:45.464Z,29.03
2023-12-11T03:28:17.526Z,28.87
2023-12-11T03:28:49.592Z,29.00
2023-12-11T03:29:21.657Z,28.17
2023-12-11T03:29:53.745Z,29.30
2023-12-11T03:30:25.901Z,29.13
2023-12-11T03:30:58.103Z,29.13
2023-12-11T03:31:30.264Z,28.67
2023-12-11T03:32:02.280Z,29.10
2023-12-11T03:32:34.371Z,29.20
2023-12-11T03:33:06.488Z,27.17
2023-12-11T03:33:38.784Z,27.97
2023-12-11T03:34:10.986Z,30.20
2023-12-11T03:34:43.528Z,30.77
2023-12-11T03:35:15.683Z,30.67
2023-12-11T03:35:47.830Z,29.57
2023-12-11T03:36:19.937Z,31.30
2023-12-11T03:36:52.111Z,32.30
2023-12-11T03:37:24.720Z,32.27
2023-12-11T03:37:56.784Z,34.93
2023-12-11T03:38:28.852Z,34.50
2023-12-11T03:39:00.891Z,35.23
2023-12-11T03:39:32.999Z,32.83
2023-12-11T03:40:06.182Z,30.60
2023-12-11T03:40:40.849Z,29.97
2023-12-11T03:41:12.881Z,30.13
2023-12-11T03:41:46.492Z,31.37
2023-12-11T03:42:18.799Z,30.90
2023-12-11T03:42:51.058Z,31.73
2023-12-11T03:43:23.131Z,29.77
2023-12-11T03:43:55.148Z,28.57
2023-12-11T03:44:27.302Z,28.90
2023-12-11T03:44:59.304Z,28.63
2023-12-11T03:45:31.661Z,28.77
2023-12-11T03:46:04.105Z,28.37
2023-12-11T03:46:36.136Z,29.03
2023-12-11T03:47:08.257Z,28.40
2023-12-11T03:47:40.424Z,28.93
2023-12-11T03:48:12.554Z,28.50
2023-12-11T03:48:44.892Z,27.97
2023-12-11T03:49:17.165Z,28.60
2023-12-11T03:49:49.289Z,27.33
2023-12-11T03:50:21.431Z,27.30
2023-12-11T03:50:53.998Z,27.13
2023-12-11T03:51:26.030Z,27.43
2023-12-11T03:51:58.138Z,27.77
2023-12-11T03:52:30.348Z,27.37
2023-12-11T03:53:02.414Z,28.07
2023-12-11T03:53:34.540Z,28.90
2023-12-11T03:54:06.594Z,27.90
2023-12-11T03:54:38.680Z,27.60
2023-12-11T03:55:11.177Z,27.37
2023-12-11T03:55:43.311Z,28.47
2023-12-11T03:56:15.513Z,28.87
2023-12-11T03:56:49.152Z,28.40
2023-12-11T03:57:21.238Z,28.70
2023-12-11T03:57:53.292Z,28.57
2023-12-11T03:58:26.984Z,27.50
2023-12-11T03:58:59.117Z,27.90
2023-12-11T03:59:31.123Z,28.67
2023-12-11T04:00:03.322Z,27.50
2023-12-11T04:00:35.434Z,28.13
2023-12-11T04:01:07.605Z,27.83
2023-12-11T04:01:39.793Z,28.07
2023-12-11T04:02:12.172Z,27.67
2023-12-11T04:02:44.598Z,28.47
2023-12-11T04:03:16.739Z,28.73
2023-12-11T04:03:48.991Z,29.07
2023-12-11T04:04:21.130Z,30.00
2023-12-11T04:04:53.227Z,29.80
2023-12-11T04:05:25.228Z,28.40
2023-12-11T04:05:57.343Z,27.80
2023-12-11T04:06:29.444Z,27.60
2023-12-11T04:07:01.565Z,27.63
2023-12-11T04:07:33.621Z,27.90
2023-12-11T04:08:06.094Z,28.40
2023-12-11T04:08:41.082Z,29.10
2023-12-11T04:09:13.278Z,30.83
2023-12-11T04:09:45.337Z,30.20
2023-12-11T04:10:17.503Z,29.73
2023-12-11T04:10:49.500Z,30.07
2023-12-11T04:11:21.690Z,30.00
2023-12-11T04:11:55.190Z,30.03
2023-12-11T04:12:27.173Z,29.90
2023-12-11T04:13:01.228Z,28.67
2023-12-11T04:13:33.298Z,29.57
2023-12-11T04:14:05.484Z,28.70
2023-12-11T04:14:37.467Z,31.50
2023-12-11T04:15:10.055Z,30.13
2023-12-11T04:15:42.236Z,28.93
2023-12-11T04:16:14.370Z,29.07
2023-12-11T04:16:46.602Z,29.00
2023-12-11T04:17:18.702Z,29.77
2023-12-11T04:17:50.942Z,29.03
2023-12-11T04:18:23.041Z,29.27
2023-12-11T04:18:58.487Z,29.67
2023-12-11T04:19:32.522Z,28.17
2023-12-11T04:20:05.552Z,29.03
2023-12-11T04:20:37.662Z,29.03
2023-12-11T04:21:09.655Z,29.97
2023-12-11T04:21:42.144Z,29.77
2023-12-11T04:22:14.688Z,28.50
2023-12-11T04:22:46.728Z,29.13
2023-12-11T04:23:19.292Z,29.77
2023-12-11T04:23:51.314Z,29.93
2023-12-11T04:24:23.309Z,29.57
2023-12-11T04:24:55.439Z,29.93
2023-12-11T04:25:27.477Z,30.30
2023-12-11T04:26:00.162Z,31.10
2023-12-11T04:26:32.463Z,31.20
2023-12-11T04:27:06.034Z,30.13
2023-12-11T04:27:38.121Z,30.53
2023-12-11T04:28:10.804Z,31.17
2023-12-11T04:28:42.870Z,31.63
2023-12-11T04:29:14.923Z,32.70
2023-12-11T04:29:46.929Z,31.53
2023-12-11T04:30:19.050Z,31.90
2023-12-11T04:30:51.108Z,31.20
2023-12-11T04:31:23.350Z,31.33
2023-12-11T04:31:55.586Z,32.07
2023-12-11T04:32:27.802Z,32.87
2023-12-11T04:33:00.018Z,33.00
2023-12-11T04:33:32.216Z,31.40
2023-12-11T04:34:04.568Z,32.07
2023-12-11T04:34:36.677Z,31.33
2023-12-11T04:35:09.118Z,31.37
2023-12-11T04:35:41.318Z,30.40
2023-12-11T04:36:13.374Z,29.40
2023-12-11T04:36:45.670Z,30.40
2023-12-11T04:37:17.757Z,30.53
2023-12-11T04:37:49.756Z,30.60
2023-12-11T04:38:21.756Z,31.40
2023-12-11T04:38:53.772Z,30.60
2023-12-11T04:39:25.911Z,30.93
2023-12-11T04:39:57.963Z,31.20
2023-12-11T04:40:30.144Z,31.57
2023-12-11T04:41:02.270Z,31.17
2023-12-11T04:41:34.419Z,31.27
2023-12-11T04:42:07.873Z,31.60
2023-12-11T04:42:40.141Z,32.23
2023-12-11T04:43:12.389Z,32.13
2023-12-11T04:43:44.526Z,29.53
2023-12-11T04:44:16.646Z,30.53
2023-12-11T04:44:48.868Z,29.70
2023-12-11T04:45:21.023Z,30.63
2023-12-11T04:45:53.325Z,32.77
2023-12-11T04:46:25.400Z,32.03
2023-12-11T04:46:57.501Z,31.07
2023-12-11T04:47:30.152Z,31.83
2023-12-11T04:48:02.578Z,30.73
2023-12-11T04:48:34.874Z,30.40
2023-12-11T04:49:07.362Z,30.67
2023-12-11T04:49:40.186Z,31.37
2023-12-11T04:50:12.318Z,31.43
2023-12-11T04:50:44.364Z,30.70
2023-12-11T04:51:16.524Z,30.77
2023-12-11T04:51:48.634Z,31.77
2023-12-11T04:52:20.661Z,32.33
2023-12-11T04:52:52.717Z,32.13
2023-12-11T04:53:24.735Z,30.60
2023-12-11T04:53:56.895Z,29.03
2023-12-11T04:54:29.108Z,29.37
2023-12-11T04:55:01.215Z,29.47
2023-12-11T04:55:33.366Z,30.27
2023-12-11T04:56:09.445Z,30.67
2023-12-11T04:56:41.550Z,29.37
2023-12-11T04:57:15.360Z,30.10
2023-12-11T04:57:47.677Z,30.77
2023-12-11T04:58:19.790Z,30.10
2023-12-11T04:58:51.921Z,29.27
2023-12-11T04:59:26.940Z,30.53
2023-12-11T04:59:58.940Z,31.20
2023-12-11T05:00:31.171Z,30.37
2023-12-11T05:01:03.600Z,30.23
2023-12-11T05:01:35.898Z,30.47
2023-12-11T05:02:08.258Z,30.23
2023-12-11T05:02:40.288Z,28.30
2023-12-11T05:03:12.563Z,30.10
2023-12-11T05:03:44.806Z,29.87
2023-12-11T05:04:16.914Z,28.53
2023-12-11T05:04:49.073Z,28.83
2023-12-11T05:05:21.235Z,31.20
2023-12-11T05:05:53.372Z,31.80
2023-12-11T05:06:25.442Z,31.37
2023-12-11T05:06:57.551Z,30.67
2023-12-11T05:07:29.832Z,30.20
2023-12-11T05:08:01.977Z,30.27
2023-12-11T05:08:34.225Z,30.97
2023-12-11T05:09:06.436Z,28.03
2023-12-11T05:09:38.632Z,29.23
2023-12-11T05:10:11.124Z,29.57
2023-12-11T05:10:43.326Z,29.10
2023-12-11T05:11:15.390Z,29.83
2023-12-11T05:11:47.404Z,29.63
2023-12-11T05:12:20.822Z,30.07
2023-12-11T05:12:52.936Z,29.37
2023-12-11T05:13:24.936Z,29.03
2023-12-11T05:13:57.015Z,29.27
2023-12-11T05:14:29.128Z,29.50
2023-12-11T05:15:01.219Z,29.70
2023-12-11T05:15:33.520Z,28.93
2023-12-11T05:16:06.311Z,30.63
2023-12-11T05:16:38.600Z,29.03
2023-12-11T05:17:10.831Z,29.87
2023-12-11T05:17:42.964Z,27.70
2023-12-11T05:18:15.135Z,28.97
2023-12-11T05:18:47.371Z,28.37
2023-12-11T05:19:19.651Z,29.90
2023-12-11T05:19:51.745Z,29.33
2023-12-11T05:20:23.811Z,28.73
2023-12-11T05:20:56.018Z,30.00
2023-12-11T05:21:28.071Z,29.40
2023-12-11T05:22:03.636Z,29.80
2023-12-11T05:22:35.724Z,29.57
2023-12-11T05:23:07.794Z,29.97
2023-12-11T05:23:39.889Z,29.00
2023-12-11T05:24:12.749Z,30.20
2023-12-11T05:24:44.883Z,28.30
2023-12-11T05:25:16.998Z,27.97
2023-12-11T05:25:49.060Z,26.50
2023-12-11T05:26:21.412Z,29.73
2023-12-11T05:26:55.366Z,28.50
2023-12-11T05:27:29.058Z,28.67
2023-12-11T05:28:01.385Z,29.00
2023-12-11T05:28:33.535Z,28.07
2023-12-11T05:29:06.225Z,28.30
2023-12-11T05:29:38.328Z,27.43
2023-12-11T05:30:10.911Z,26.33
2023-12-11T05:30:42.965Z,26.97
2023-12-11T05:31:15.414Z,27.63
2023-12-11T05:31:47.724Z,26.97
2023-12-11T05:32:19.818Z,27.63
2023-12-11T05:32:51.956Z,28.33
2023-12-11T05:33:24.371Z,27.97
2023-12-11T05:33:56.623Z,27.57
2023-12-11T05:34:28.736Z,26.60
2023-12-11T05:35:00.991Z,28.77
2023-12-11T05:35:33.040Z,28.17
2023-12-11T05:36:06.078Z,27.43
2023-12-11T05:36:38.170Z,26.50
2023-12-11T05:37:10.513Z,27.20
2023-12-11T05:37:42.682Z,26.17
2023-12-11T05:38:14.787Z,26.97
2023-12-11T05:38:49.809Z,27.17
2023-12-11T05:39:21.838Z,26.63
2023-12-11T05:40:01.228Z,27.43
2023-12-11T05:40:45.973Z,28.47
2023-12-11T05:41:18.448Z,27.40
2023-12-11T05:41:50.479Z,28.10
2023-12-11T05:42:22.565Z,27.93
2023-12-11T05:42:56.192Z,27.80
2023-12-11T05:43:28.219Z,26.73
2023-12-11T05:44:00.269Z,26.43
2023-12-11T05:44:32.272Z,26.77
2023-12-11T05:45:05.155Z,28.30
2023-12-11T05:45:37.249Z,28.23
2023-12-11T05:46:09.454Z,27.40
2023-12-11T05:46:41.715Z,27.27
2023-12-11T05:47:13.937Z,29.10
2023-12-11T05:47:46.199Z,28.07
2023-12-11T05:48:18.301Z,27.40
2023-12-11T05:48:50.464Z,28.07
2023-12-11T05:49:22.647Z,27.47
2023-12-11T05:49:54.865Z,28.07
2023-12-11T05:50:27.032Z,27.53
2023-12-11T05:50:59.247Z,28.00
2023-12-11T05:51:31.464Z,29.37
2023-12-11T05:52:03.952Z,29.83
2023-12-11T05:52:36.044Z,29.30
2023-12-11T05:53:08.382Z,30.40
2023-12-11T05:53:40.577Z,29.07
2023-12-11T05:54:12.629Z,28.30
2023-12-11T05:54:44.708Z,26.33
2023-12-11T05:55:16.928Z,27.77
2023-12-11T05:55:49.090Z,27.00
2023-12-11T05:56:21.097Z,27.00
2023-12-11T05:56:53.164Z,28.03
2023-12-11T05:57:25.785Z,27.53
2023-12-11T05:57:59.242Z,27.70
2023-12-11T05:58:31.251Z,28.27
2023-12-11T05:59:03.463Z,27.43
2023-12-11T05:59:35.606Z,26.80
2023-12-11T06:00:08.939Z,27.53
2023-12-11T06:00:41.385Z,28.27
2023-12-11T06:01:13.614Z,28.70
2023-12-11T06:01:45.934Z,28.07
2023-12-11T06:02:18.066Z,26.83
2023-12-11T06:02:50.153Z,26.87
2023-12-11T06:03:22.164Z,27.50
2023-12-11T06:03:54.216Z,26.80
2023-12-11T06:04:26.252Z,27.07
2023-12-11T06:04:58.281Z,27.33
2023-12-11T06:05:30.267Z,27.40
2023-12-11T06:06:02.370Z,27.50
2023-12-11T06:06:34.450Z,26.03
2023-12-11T06:07:06.542Z,26.83
2023-12-11T06:07:38.609Z,26.07
2023-12-11T06:08:10.680Z,26.63
2023-12-11T06:08:42.749Z,27.00
2023-12-11T06:09:15.021Z,27.53
2023-12-11T06:09:47.120Z,26.77
2023-12-11T06:10:19.222Z,26.60
2023-12-11T06:10:51.388Z,26.17
2023-12-11T06:11:23.382Z,26.07
2023-12-11T06:11:55.400Z,26.33
2023-12-11T06:12:27.520Z,26.90
2023-12-11T06:13:00.995Z,27.93
2023-12-11T06:13:33.070Z,27.77
2023-12-11T06:14:05.137Z,27.50
2023-12-11T06:14:40.038Z,26.67
2023-12-11T06:15:12.931Z,26.47
2023-12-11T06:15:45.204Z,25.90
2023-12-11T06:16:17.381Z,24.43
2023-12-11T06:16:49.591Z,25.93
2023-12-11T06:17:21.682Z,26.73
2023-12-11T06:17:53.823Z,26.30
2023-12-11T06:18:25.986Z,26.77
2023-12-11T06:18:58.106Z,28.30
2023-12-11T06:19:30.324Z,27.03
2023-12-11T06:20:02.507Z,27.17
2023-12-11T06:20:34.687Z,27.37
2023-12-11T06:21:07.158Z,28.43
2023-12-11T06:21:39.251Z,29.03
2023-12-11T06:22:11.316Z,27.47
2023-12-11T06:22:43.581Z,27.23
2023-12-11T06:23:15.628Z,28.80
2023-12-11T06:23:47.810Z,38.47
2023-12-11T06:24:19.818Z,40.67
2023-12-11T06:24:51.929Z,35.13
2023-12-11T06:25:23.999Z,37.67
2023-12-11T06:25:56.002Z,39.27
2023-12-11T06:26:31.374Z,39.10
2023-12-11T06:27:03.627Z,39.73
2023-12-11T06:27:35.670Z,40.60
2023-12-11T06:28:09.106Z,38.20
2023-12-11T06:28:41.143Z,39.70
2023-12-11T06:29:13.170Z,37.27
2023-12-11T06:29:45.296Z,38.03
2023-12-11T06:30:17.410Z,39.10
2023-12-11T06:30:49.524Z,35.77
2023-12-11T06:31:21.689Z,34.07
2023-12-11T06:31:53.691Z,31.33
2023-12-11T06:32:25.784Z,30.47
2023-12-11T06:32:57.851Z,30.70
2023-12-11T06:33:29.867Z,29.70
2023-12-11T06:34:02.037Z,30.53
2023-12-11T06:34:34.978Z,29.47
2023-12-11T06:35:07.940Z,29.20
2023-12-11T06:35:40.097Z,30.57
2023-12-11T06:36:12.298Z,31.57
2023-12-11T06:36:44.447Z,31.37
2023-12-11T06:37:16.778Z,32.33
2023-12-11T06:37:49.184Z,34.40
2023-12-11T06:38:21.186Z,35.27
2023-12-11T06:38:53.275Z,33.70
2023-12-11T06:39:25.250Z,32.57
2023-12-11T06:39:57.327Z,33.17
2023-12-11T06:40:29.412Z,33.27
2023-12-11T06:41:01.456Z,34.23
2023-12-11T06:41:36.266Z,32.97
2023-12-11T06:42:08.580Z,31.70
2023-12-11T06:42:40.717Z,31.60
2023-12-11T06:43:14.262Z,34.97
2023-12-11T06:43:49.190Z,39.73
2023-12-11T06:44:21.290Z,39.97
2023-12-11T06:44:53.741Z,39.23
2023-12-11T06:45:25.921Z,37.07
2023-12-11T06:45:58.082Z,34.50
2023-12-11T06:46:30.891Z,34.53
2023-12-11T06:47:03.385Z,35.80
2023-12-11T06:47:35.757Z,34.80
2023-12-11T06:48:08.122Z,34.33
2023-12-11T06:48:40.517Z,33.50
2023-12-11T06:49:12.857Z,34.70
2023-12-11T06:49:45.222Z,34.73
2023-12-11T06:50:17.413Z,34.87
2023-12-11T06:50:49.513Z,34.27
2023-12-11T06:51:21.680Z,36.17
2023-12-11T06:51:53.720Z,34.87
2023-12-11T06:52:25.934Z,34.57
2023-12-11T06:52:58.028Z,35.03
2023-12-11T06:53:30.101Z,34.37
2023-12-11T06:54:02.280Z,46.67
2023-12-11T06:54:34.575Z,49.70
2023-12-11T06:55:07.729Z,53.90
2023-12-11T06:55:39.795Z,52.30
2023-12-11T06:56:17.976Z,54.13
2023-12-11T06:56:50.258Z,56.60
2023-12-11T06:57:22.444Z,56.53
2023-12-11T06:57:55.858Z,56.67
2023-12-11T06:58:29.324Z,58.50
2023-12-11T06:59:01.368Z,58.77
2023-12-11T06:59:33.424Z,55.87
2023-12-11T07:00:06.994Z,49.90
2023-12-11T07:00:39.246Z,49.00
2023-12-11T07:01:11.589Z,49.87
2023-12-11T07:01:44.006Z,43.93